createdAt,value
2022-08-29T00:00:17.821Z,100164.94
2022-08-29T00:02:47.346Z,100169.97
2022-08-29T00:05:14.242Z,100165.13
2022-08-29T00:07:40.941Z,100170.00
2022-08-29T00:10:09.199Z,100175.91
2022-08-29T00:12:37.452Z,100170.06
2022-08-29T00:15:07.243Z,100168.78
2022-08-29T00:17:33.827Z,100158.69
2022-08-29T00:20:00.601Z,100169.66
2022-08-29T00:22:27.219Z,100172.59
2022-08-29T00:24:53.805Z,100176.34
2022-08-29T00:27:20.331Z,100176.16
2022-08-29T00:29:47.295Z,100173.41
2022-08-29T00:32:13.830Z,100176.38
2022-08-29T00:34:40.442Z,100175.78
2022-08-29T00:37:06.980Z,100181.44
2022-08-29T00:39:34.046Z,100180.22
2022-08-29T00:42:01.312Z,100181.69
2022-08-29T00:44:28.642Z,100185.03
2022-08-29T00:46:58.608Z,100189.03
2022-08-29T00:49:39.141Z,100182.72
2022-08-29T00:52:37.387Z,100190.31
2022-08-29T00:55:11.119Z,100199.16
2022-08-29T00:57:42.381Z,100201.66
2022-08-29T01:00:10.183Z,100196.59
2022-08-29T01:02:40.739Z,100205.41
2022-08-29T01:05:09.188Z,100199.94
2022-08-29T01:07:35.799Z,100195.53
2022-08-29T01:10:13.331Z,100201.41
2022-08-29T01:12:40.830Z,100201.63
2022-08-29T01:15:10.301Z,100204.38
2022-08-29T01:17:44.623Z,100201.19
2022-08-29T01:20:28.754Z,100200.78
2022-08-29T01:23:44.928Z,100197.44
2022-08-29T01:26:13.025Z,100199.31
2022-08-29T01:28:47.170Z,100206.47
2022-08-29T01:31:51.419Z,100217.59
2022-08-29T01:34:10.550Z,100214.69
2022-08-29T01:36:53.629Z,100210.44
2022-08-29T01:39:24.598Z,100216.53
2022-08-29T01:41:51.814Z,100214.84
2022-08-29T01:44:20.919Z,100205.81
2022-08-29T01:46:49.613Z,100199.91
2022-08-29T01:49:18.364Z,100195.06
2022-08-29T01:51:45.883Z,100199.88
2022-08-29T01:54:14.385Z,100199.44
2022-08-29T01:56:45.410Z,100204.88
2022-08-29T01:59:14.962Z,100203.44
2022-08-29T02:01:54.727Z,100200.91
2022-08-29T02:04:21.327Z,100205.97
2022-08-29T02:06:47.910Z,100200.72
2022-08-29T02:09:14.435Z,100203.25
2022-08-29T02:11:41.047Z,100205.34
2022-08-29T02:14:08.128Z,100204.28
2022-08-29T02:16:42.939Z,100201.56
2022-08-29T02:19:09.518Z,100202.16
2022-08-29T02:21:36.175Z,100195.84
2022-08-29T02:24:23.935Z,100194.78
2022-08-29T02:26:51.886Z,100183.22
2022-08-29T02:29:18.430Z,100181.00
2022-08-29T02:31:45.054Z,100190.91
2022-08-29T02:34:12.550Z,100190.13
2022-08-29T02:36:41.415Z,100175.63
2022-08-29T02:39:08.644Z,100176.19
2022-08-29T02:41:35.921Z,100173.88
2022-08-29T02:44:03.714Z,100172.34
2022-08-29T02:46:30.450Z,100177.81
2022-08-29T02:49:00.443Z,100178.66
2022-08-29T02:51:30.927Z,100175.28
2022-08-29T02:53:57.913Z,100181.34
2022-08-29T02:56:24.559Z,100181.91
2022-08-29T02:58:51.113Z,100190.31
2022-08-29T03:01:22.553Z,100180.41
2022-08-29T03:03:50.530Z,100184.81
2022-08-29T03:06:18.114Z,100192.59
2022-08-29T03:08:44.717Z,100186.47
2022-08-29T03:11:11.399Z,100185.22
2022-08-29T03:13:38.651Z,100196.34
2022-08-29T03:16:05.261Z,100192.97
2022-08-29T03:18:32.099Z,100199.47
2022-08-29T03:20:59.589Z,100205.38
2022-08-29T03:23:26.126Z,100203.50
2022-08-29T03:25:52.710Z,100209.19
2022-08-29T03:28:19.409Z,100210.22
2022-08-29T03:30:46.726Z,100219.28
2022-08-29T03:33:13.321Z,100220.94
2022-08-29T03:35:40.089Z,100219.28
2022-08-29T03:38:06.891Z,100223.63
2022-08-29T03:40:33.970Z,100219.88
2022-08-29T03:43:00.771Z,100226.34
2022-08-29T03:45:27.405Z,100222.63
2022-08-29T03:47:54.031Z,100232.69
2022-08-29T03:50:21.727Z,100242.75
2022-08-29T03:52:48.683Z,100237.28
2022-08-29T03:55:16.073Z,100243.59
2022-08-29T03:57:43.243Z,100244.19
2022-08-29T04:00:19.028Z,100256.91
2022-08-29T04:02:47.466Z,100258.47
2022-08-29T04:05:16.099Z,100257.38
2022-08-29T04:07:50.225Z,100249.38
2022-08-29T04:10:27.651Z,100252.09
2022-08-29T04:12:55.097Z,100260.78
2022-08-29T04:15:23.346Z,100256.31
2022-08-29T04:17:55.281Z,100255.50
2022-08-29T04:20:25.714Z,100263.03
2022-08-29T04:22:54.211Z,100265.97
2022-08-29T04:25:21.961Z,100269.75
2022-08-29T04:27:49.640Z,100266.13
2022-08-29T04:30:20.861Z,100276.59
2022-08-29T04:32:47.449Z,100268.22
2022-08-29T04:35:14.770Z,100278.75
2022-08-29T04:37:42.690Z,100274.41
2022-08-29T04:40:13.753Z,100278.41
2022-08-29T04:42:41.322Z,100283.06
2022-08-29T04:45:12.333Z,100278.94
2022-08-29T04:47:39.756Z,100283.78
2022-08-29T04:50:08.422Z,100285.94
2022-08-29T04:52:35.042Z,100282.78
2022-08-29T04:55:01.602Z,100288.41
2022-08-29T04:57:28.192Z,100273.13
2022-08-29T04:59:59.951Z,100275.06
2022-08-29T05:02:28.161Z,100278.00
2022-08-29T05:04:56.827Z,100288.69
2022-08-29T05:07:26.026Z,100279.69
2022-08-29T05:09:58.719Z,100283.50
2022-08-29T05:12:26.577Z,100281.88
2022-08-29T05:14:53.882Z,100285.44
2022-08-29T05:17:21.436Z,100282.34
2022-08-29T05:19:48.229Z,100292.06
2022-08-29T05:22:16.719Z,100289.16
2022-08-29T05:24:43.586Z,100292.13
2022-08-29T05:27:13.346Z,100290.06
2022-08-29T05:29:45.010Z,100298.03
2022-08-29T05:32:14.896Z,100297.84
2022-08-29T05:34:43.468Z,100304.22
2022-08-29T05:37:17.268Z,100297.94
2022-08-29T05:39:43.809Z,100302.41
2022-08-29T05:42:12.296Z,100300.97
2022-08-29T05:44:40.165Z,100302.66
2022-08-29T05:47:09.455Z,100310.03
2022-08-29T05:49:41.252Z,100311.75
2022-08-29T05:52:09.199Z,100297.31
2022-08-29T05:54:37.542Z,100304.28
2022-08-29T05:57:05.604Z,100299.47
2022-08-29T05:59:32.514Z,100296.31
2022-08-29T06:01:59.074Z,100302.44
2022-08-29T06:04:25.822Z,100294.09
2022-08-29T06:06:52.384Z,100291.59
2022-08-29T06:09:19.168Z,100299.38
2022-08-29T06:11:48.887Z,100299.16
2022-08-29T06:14:16.562Z,100298.31
2022-08-29T06:16:43.352Z,100301.06
2022-08-29T06:19:10.139Z,100307.16
2022-08-29T06:21:36.681Z,100307.78
2022-08-29T06:24:04.396Z,100311.81
2022-08-29T06:26:31.568Z,100319.56
2022-08-29T06:28:58.445Z,100317.50
2022-08-29T06:31:29.148Z,100325.91
2022-08-29T06:33:59.219Z,100329.88
2022-08-29T06:36:27.401Z,100327.59
2022-08-29T06:38:58.622Z,100329.69
2022-08-29T06:41:26.190Z,100327.59
2022-08-29T06:43:55.099Z,100330.97
2022-08-29T06:46:25.863Z,100327.56
2022-08-29T06:48:53.413Z,100332.84
2022-08-29T06:51:20.483Z,100333.47
2022-08-29T06:53:47.122Z,100338.50
2022-08-29T06:56:15.031Z,100348.84
2022-08-29T06:58:42.528Z,100343.97
2022-08-29T07:01:15.268Z,100350.69
2022-08-29T07:03:42.270Z,100344.38
2022-08-29T07:06:09.179Z,100350.69
2022-08-29T07:08:38.819Z,100346.88
2022-08-29T07:11:08.099Z,100344.31
2022-08-29T07:13:35.205Z,100346.41
2022-08-29T07:16:01.990Z,100350.00
2022-08-29T07:18:29.400Z,100353.09
2022-08-29T07:20:56.005Z,100344.66
2022-08-29T07:23:22.558Z,100347.78
2022-08-29T07:25:49.082Z,100341.59
2022-08-29T07:28:15.797Z,100345.97
2022-08-29T07:30:42.461Z,100347.63
2022-08-29T07:33:09.533Z,100353.47
2022-08-29T07:35:36.073Z,100350.00
2022-08-29T07:38:02.647Z,100349.50
2022-08-29T07:40:29.739Z,100351.19
2022-08-29T07:42:56.351Z,100353.22
2022-08-29T07:45:23.046Z,100347.50
2022-08-29T07:47:49.750Z,100352.47
2022-08-29T07:50:17.082Z,100350.81
2022-08-29T07:52:43.629Z,100349.72
2022-08-29T07:55:10.274Z,100348.50
2022-08-29T07:57:37.007Z,100358.69
2022-08-29T08:00:10.054Z,100361.38
2022-08-29T08:02:36.642Z,100355.97
2022-08-29T08:05:03.238Z,100362.47
2022-08-29T08:07:35.140Z,100361.09
2022-08-29T08:10:03.125Z,100363.22
2022-08-29T08:12:30.082Z,100366.53
2022-08-29T08:14:57.189Z,100360.91
2022-08-29T08:17:23.895Z,100353.09
2022-08-29T08:19:50.401Z,100356.25
2022-08-29T08:22:16.966Z,100360.44
2022-08-29T08:24:43.706Z,100358.75
2022-08-29T08:27:10.322Z,100356.66
2022-08-29T08:29:36.853Z,100355.75
2022-08-29T08:32:03.738Z,100359.38
2022-08-29T08:34:30.337Z,100358.63
2022-08-29T08:36:57.312Z,100363.19
2022-08-29T08:39:23.879Z,100349.84
2022-08-29T08:42:00.528Z,100360.91
2022-08-29T08:44:52.470Z,100360.69
2022-08-29T08:47:26.538Z,100354.50
2022-08-29T08:50:12.864Z,100355.69
2022-08-29T08:52:42.436Z,100358.09
2022-08-29T08:55:25.120Z,100361.56
2022-08-29T08:58:02.653Z,100360.47
2022-08-29T09:00:39.294Z,100357.13
2022-08-29T09:03:23.447Z,100367.19
2022-08-29T09:05:49.849Z,100361.56
2022-08-29T09:08:26.505Z,100354.03
2022-08-29T09:11:04.248Z,100351.22
2022-08-29T09:13:58.189Z,100352.56
2022-08-29T09:16:31.537Z,100348.13
2022-08-29T09:19:09.505Z,100347.72
2022-08-29T09:21:56.065Z,100342.47
2022-08-29T09:24:44.449Z,100331.03
2022-08-29T09:27:23.616Z,100342.53
2022-08-29T09:29:58.667Z,100342.88
2022-08-29T09:32:25.237Z,100347.16
2022-08-29T09:37:38.704Z,100357.34
2022-08-29T09:40:12.544Z,100350.69
2022-08-29T09:42:52.411Z,100353.75
2022-08-29T09:45:25.334Z,100356.44
2022-08-29T09:48:17.447Z,100355.78
2022-08-29T09:50:44.602Z,100353.03
2022-08-29T09:53:24.588Z,100352.88
2022-08-29T09:55:52.894Z,100347.13
2022-08-29T09:58:19.990Z,100347.50
2022-08-29T10:01:00.761Z,100348.88
2022-08-29T10:03:33.346Z,100348.63
2022-08-29T10:06:28.148Z,100354.59
2022-08-29T10:09:08.360Z,100356.47
2022-08-29T10:11:56.431Z,100351.97
2022-08-29T10:14:33.624Z,100350.28
2022-08-29T10:17:22.691Z,100348.38
2022-08-29T10:19:50.671Z,100361.47
2022-08-29T10:22:27.405Z,100355.50
2022-08-29T10:25:20.902Z,100363.09
2022-08-29T10:27:58.498Z,100363.94
2022-08-29T10:30:37.211Z,100364.13
2022-08-29T10:33:16.909Z,100358.28
2022-08-29T10:35:55.899Z,100362.00
2022-08-29T10:38:46.072Z,100352.66
2022-08-29T10:41:34.154Z,100358.81
2022-08-29T10:44:01.290Z,100361.81
2022-08-29T10:46:50.059Z,100356.56
2022-08-29T10:49:52.184Z,100356.28
2022-08-29T10:52:43.058Z,100351.63
2022-08-29T10:55:35.684Z,100348.06
2022-08-29T10:58:02.162Z,100343.69
2022-08-29T11:01:12.186Z,100347.28
2022-08-29T11:03:48.568Z,100339.63
2022-08-29T11:06:30.291Z,100338.19
2022-08-29T11:09:27.731Z,100340.09
2022-08-29T11:12:05.514Z,100345.41
2022-08-29T11:14:39.519Z,100339.53
2022-08-29T11:17:09.238Z,100341.13
2022-08-29T11:20:11.409Z,100334.00
2022-08-29T11:22:42.772Z,100324.38
2022-08-29T11:25:15.953Z,100329.28
2022-08-29T11:28:04.166Z,100324.66
2022-08-29T11:30:40.380Z,100326.53
2022-08-29T11:33:32.718Z,100321.34
2022-08-29T11:36:17.567Z,100317.38
2022-08-29T11:39:05.172Z,100312.22
2022-08-29T11:41:54.108Z,100318.66
2022-08-29T11:44:32.027Z,100317.31
2022-08-29T11:46:58.992Z,100323.44
2022-08-29T11:49:46.631Z,100319.94
2022-08-29T11:52:18.899Z,100323.00
2022-08-29T11:55:16.170Z,100323.28
2022-08-29T11:57:52.742Z,100317.97
2022-08-29T12:00:38.147Z,100321.59
2022-08-29T12:03:14.896Z,100327.47
2022-08-29T12:05:57.819Z,100321.91
2022-08-29T12:08:42.593Z,100317.22
2022-08-29T12:11:09.127Z,100318.56
2022-08-29T12:13:45.029Z,100315.28
2022-08-29T12:16:15.431Z,100312.78
2022-08-29T12:18:48.786Z,100311.94
2022-08-29T12:21:33.632Z,100317.22
2022-08-29T12:24:00.966Z,100305.56
2022-08-29T12:26:44.631Z,100299.06
2022-08-29T12:29:43.721Z,100300.13
2022-08-29T12:32:23.103Z,100296.66
2022-08-29T12:35:16.404Z,100287.16
2022-08-29T12:37:53.951Z,100291.56
2022-08-29T12:40:41.738Z,100293.13
2022-08-29T12:43:17.114Z,100280.19
2022-08-29T12:45:46.058Z,100283.28
2022-08-29T12:48:41.262Z,100280.53
2022-08-29T12:51:09.338Z,100277.72
2022-08-29T12:53:37.054Z,100274.81
2022-08-29T12:56:22.429Z,100269.22
2022-08-29T12:58:51.682Z,100269.03
2022-08-29T13:01:38.138Z,100261.97
2022-08-29T13:04:06.450Z,100255.84
2022-08-29T13:06:33.846Z,100263.25
2022-08-29T13:09:00.830Z,100258.56
2022-08-29T13:11:30.664Z,100261.00
2022-08-29T13:14:06.732Z,100259.06
2022-08-29T13:16:33.374Z,100248.31
2022-08-29T13:19:10.947Z,100254.00
2022-08-29T13:21:38.368Z,100257.81
2022-08-29T13:24:12.782Z,100254.03
2022-08-29T13:26:50.682Z,100252.53
2022-08-29T13:29:42.438Z,100246.78
2022-08-29T13:32:27.808Z,100248.56
2022-08-29T13:35:15.370Z,100242.13
2022-08-29T13:37:46.440Z,100238.50
2022-08-29T13:40:31.626Z,100242.13
2022-08-29T13:42:59.616Z,100244.25
2022-08-29T13:45:27.172Z,100242.81
2022-08-29T13:48:23.319Z,100236.47
2022-08-29T13:50:49.882Z,100239.47
2022-08-29T13:53:16.681Z,100238.50
2022-08-29T13:55:43.461Z,100238.44
2022-08-29T13:58:12.321Z,100239.50
2022-08-29T14:00:39.390Z,100241.91
2022-08-29T14:03:07.479Z,100231.50
2022-08-29T14:05:35.291Z,100246.31
2022-08-29T14:08:02.464Z,100243.09
2022-08-29T14:10:29.031Z,100238.34
2022-08-29T14:12:55.558Z,100239.63
2022-08-29T14:15:22.103Z,100239.38
2022-08-29T14:17:48.931Z,100229.81
2022-08-29T14:20:17.666Z,100243.41
2022-08-29T14:22:45.184Z,100246.22
2022-08-29T14:25:12.914Z,100244.00
2022-08-29T14:27:40.276Z,100238.34
2022-08-29T14:30:09.023Z,100235.31
2022-08-29T14:32:35.762Z,100234.19
2022-08-29T14:35:03.969Z,100234.25
2022-08-29T14:37:32.170Z,100228.13
2022-08-29T14:39:59.111Z,100234.25
2022-08-29T14:42:25.790Z,100228.44
2022-08-29T14:44:52.600Z,100231.81
2022-08-29T14:47:20.529Z,100235.28
2022-08-29T14:49:47.085Z,100240.38
2022-08-29T14:52:15.090Z,100223.09
2022-08-29T14:54:44.832Z,100236.75
2022-08-29T14:57:11.380Z,100231.22
2022-08-29T14:59:39.538Z,100228.31
2022-08-29T15:02:08.218Z,100231.31
2022-08-29T15:04:36.942Z,100237.38
2022-08-29T15:07:06.451Z,100227.06
2022-08-29T15:09:33.233Z,100232.91
2022-08-29T15:11:59.833Z,100227.25
2022-08-29T15:14:27.442Z,100233.84
2022-08-29T15:16:54.010Z,100225.91
2022-08-29T15:22:08.506Z,100231.50
2022-08-29T15:24:35.123Z,100234.88
2022-08-29T15:27:02.194Z,100227.56
2022-08-29T15:29:28.958Z,100230.91
2022-08-29T15:32:00.103Z,100230.22
2022-08-29T15:34:28.280Z,100228.13
2022-08-29T15:36:56.151Z,100231.69
2022-08-29T15:39:23.669Z,100230.59
2022-08-29T15:41:50.421Z,100234.69
2022-08-29T15:44:17.131Z,100236.00
2022-08-29T15:46:50.341Z,100244.19
2022-08-29T15:49:19.919Z,100249.16
2022-08-29T15:51:48.162Z,100263.50
2022-08-29T15:54:15.151Z,100255.25
2022-08-29T15:56:42.394Z,100250.91
2022-08-29T15:59:11.100Z,100256.09
2022-08-29T16:01:44.300Z,100252.16
2022-08-29T16:04:11.140Z,100250.59
2022-08-29T16:06:38.837Z,100256.78
2022-08-29T16:09:15.241Z,100256.19
2022-08-29T16:11:45.912Z,100248.09
2022-08-29T16:14:57.404Z,100244.53
2022-08-29T16:16:59.309Z,100247.88
2022-08-29T16:19:25.735Z,100241.97
2022-08-29T16:21:52.713Z,100254.38
2022-08-29T16:24:21.682Z,100247.94
2022-08-29T16:26:48.094Z,100252.63
2022-08-29T16:29:14.550Z,100255.38
2022-08-29T16:31:42.899Z,100264.06
2022-08-29T16:34:09.309Z,100261.16
2022-08-29T16:36:37.079Z,100261.53
2022-08-29T16:39:04.522Z,100259.53
2022-08-29T16:41:31.570Z,100270.13
2022-08-29T16:43:58.947Z,100274.09
2022-08-29T16:46:27.254Z,100281.03
2022-08-29T16:48:57.630Z,100278.19
2022-08-29T16:51:25.874Z,100281.75
2022-08-29T16:53:52.383Z,100287.34
2022-08-29T16:56:19.294Z,100290.28
2022-08-29T16:59:00.013Z,100302.25
2022-08-29T17:01:27.242Z,100304.19
2022-08-29T17:03:53.702Z,100299.44
2022-08-29T17:06:20.160Z,100291.19
2022-08-29T17:08:46.511Z,100299.31
2022-08-29T17:11:13.142Z,100300.03
2022-08-29T17:13:39.893Z,100298.94
2022-08-29T17:16:07.245Z,100313.28
2022-08-29T17:18:34.103Z,100311.97
2022-08-29T17:21:00.611Z,100311.41
2022-08-29T17:23:28.333Z,100311.06
2022-08-29T17:25:54.881Z,100312.00
2022-08-29T17:28:21.329Z,100311.47
2022-08-29T17:30:48.782Z,100318.59
2022-08-29T17:33:16.137Z,100319.03
2022-08-29T17:35:43.289Z,100328.22
2022-08-29T17:38:09.821Z,100327.31
2022-08-29T17:40:37.338Z,100332.88
2022-08-29T17:43:04.315Z,100332.41
2022-08-29T17:45:32.361Z,100339.53
2022-08-29T17:47:58.762Z,100348.53
2022-08-29T17:50:25.495Z,100342.00
2022-08-29T17:52:52.027Z,100346.97
2022-08-29T17:55:19.838Z,100350.81
2022-08-29T17:57:46.357Z,100354.03
2022-08-29T18:00:13.374Z,100352.59
2022-08-29T18:02:41.701Z,100357.00
2022-08-29T18:05:13.774Z,100363.53
2022-08-29T18:07:40.979Z,100357.31
2022-08-29T18:10:09.774Z,100376.28
2022-08-29T18:12:36.216Z,100375.34
2022-08-29T18:15:03.799Z,100376.78
2022-08-29T18:17:32.147Z,100379.31
2022-08-29T18:20:01.255Z,100378.94
2022-08-29T18:22:29.426Z,100380.16
2022-08-29T18:24:57.784Z,100388.53
2022-08-29T18:27:24.962Z,100383.47
2022-08-29T18:29:52.059Z,100383.56
2022-08-29T18:32:21.978Z,100392.06
2022-08-29T18:34:48.478Z,100392.81
2022-08-29T18:37:15.248Z,100395.84
2022-08-29T18:39:42.998Z,100399.31
2022-08-29T18:42:24.751Z,100393.88
2022-08-29T18:44:56.063Z,100388.69
2022-08-29T18:47:22.475Z,100388.41
2022-08-29T18:50:07.513Z,100391.00
2022-08-29T18:52:36.430Z,100406.78
2022-08-29T18:55:04.035Z,100404.97
2022-08-29T18:57:30.630Z,100401.28
2022-08-29T18:59:57.329Z,100396.88
2022-08-29T19:02:23.868Z,100402.13
2022-08-29T19:04:50.781Z,100396.38
2022-08-29T19:07:17.338Z,100394.84
2022-08-29T19:09:52.998Z,100399.13
2022-08-29T19:12:19.676Z,100402.53
2022-08-29T19:14:46.347Z,100404.59
2022-08-29T19:17:13.128Z,100406.38
2022-08-29T19:19:58.031Z,100405.75
2022-08-29T19:22:24.583Z,100409.34
2022-08-29T19:24:50.997Z,100421.19
2022-08-29T19:27:39.603Z,100417.22
2022-08-29T19:30:06.018Z,100423.81
2022-08-29T19:32:32.568Z,100432.13
2022-08-29T19:34:59.005Z,100433.53
2022-08-29T19:37:26.447Z,100432.13
2022-08-29T19:39:52.924Z,100414.78
2022-08-29T19:42:19.497Z,100427.91
2022-08-29T19:44:45.945Z,100433.25
2022-08-29T19:47:14.591Z,100430.75
2022-08-29T19:49:45.444Z,100422.56
2022-08-29T19:52:12.156Z,100421.66
2022-08-29T19:54:38.581Z,100425.47
2022-08-29T19:57:05.116Z,100423.97
2022-08-29T19:59:31.973Z,100425.94
2022-08-29T20:01:58.615Z,100436.81
2022-08-29T20:04:25.137Z,100431.97
2022-08-29T20:06:52.435Z,100428.50
2022-08-29T20:09:21.026Z,100432.81
2022-08-29T20:11:47.673Z,100435.88
2022-08-29T20:14:14.422Z,100431.94
2022-08-29T20:16:41.852Z,100432.28
2022-08-29T20:19:08.413Z,100431.19
2022-08-29T20:21:34.954Z,100431.97
2022-08-29T20:24:02.349Z,100433.91
2022-08-29T20:26:31.513Z,100435.34
2022-08-29T20:28:58.742Z,100437.38
2022-08-29T20:31:25.180Z,100433.34
2022-08-29T20:33:51.794Z,100433.38
2022-08-29T20:36:38.264Z,100437.91
2022-08-29T20:39:06.174Z,100437.22
2022-08-29T20:41:32.701Z,100443.31
2022-08-29T20:44:06.753Z,100445.84
2022-08-29T20:46:34.047Z,100449.72
2022-08-29T20:49:01.471Z,100444.91
2022-08-29T20:51:28.044Z,100448.09
2022-08-29T20:53:55.191Z,100441.16
2022-08-29T20:56:21.991Z,100448.38
2022-08-29T20:58:48.400Z,100447.53
2022-08-29T21:01:14.925Z,100447.94
2022-08-29T21:03:59.722Z,100450.50
2022-08-29T21:06:26.604Z,100449.25
2022-08-29T21:08:53.035Z,100436.81
2022-08-29T21:11:19.505Z,100435.84
2022-08-29T21:13:46.692Z,100436.72
2022-08-29T21:16:14.686Z,100435.44
2022-08-29T21:18:41.407Z,100436.06
2022-08-29T21:21:12.452Z,100433.19
2022-08-29T21:23:39.126Z,100426.22
2022-08-29T21:26:05.643Z,100433.22
2022-08-29T21:28:35.006Z,100435.50
2022-08-29T21:31:05.259Z,100439.34
2022-08-29T21:33:33.429Z,100443.19
2022-08-29T21:36:01.281Z,100442.34
2022-08-29T21:38:29.094Z,100440.94
2022-08-29T21:40:58.598Z,100439.88
2022-08-29T21:43:25.053Z,100438.84
2022-08-29T21:45:51.507Z,100437.78
2022-08-29T21:48:18.018Z,100442.44
2022-08-29T21:50:44.526Z,100439.53
2022-08-29T21:53:11.634Z,100439.09
2022-08-29T21:55:38.086Z,100444.16
2022-08-29T21:58:04.555Z,100453.47
2022-08-29T22:00:33.242Z,100443.56
2022-08-29T22:03:00.712Z,100448.41
2022-08-29T22:05:28.090Z,100443.16
2022-08-29T22:07:57.651Z,100440.41
2022-08-29T22:10:26.341Z,100449.06
2022-08-29T22:12:53.017Z,100445.47
2022-08-29T22:15:38.160Z,100449.53
2022-08-29T22:18:05.203Z,100440.22
2022-08-29T22:20:32.373Z,100445.50
2022-08-29T22:22:58.852Z,100447.19
2022-08-29T22:25:25.446Z,100452.06
2022-08-29T22:27:51.883Z,100449.72
2022-08-29T22:30:18.391Z,100458.00
2022-08-29T22:32:44.787Z,100461.38
2022-08-29T22:35:19.522Z,100455.66
2022-08-29T22:37:45.966Z,100459.06
2022-08-29T22:40:15.184Z,100463.25
2022-08-29T22:42:41.903Z,100471.91
2022-08-29T22:45:08.890Z,100467.28
2022-08-29T22:47:36.445Z,100473.81
2022-08-29T22:50:03.357Z,100467.72
2022-08-29T22:52:29.778Z,100469.63
2022-08-29T22:54:56.163Z,100479.56
2022-08-29T22:57:22.832Z,100469.41
2022-08-29T22:59:49.261Z,100484.59
2022-08-29T23:02:17.778Z,100485.66
2022-08-29T23:04:44.347Z,100486.50
2022-08-29T23:07:12.129Z,100484.38
2022-08-29T23:09:39.684Z,100482.50
2022-08-29T23:12:06.717Z,100481.44
2022-08-29T23:14:35.791Z,100482.72
2022-08-29T23:17:03.047Z,100491.78
2022-08-29T23:19:29.491Z,100494.72
2022-08-29T23:21:57.582Z,100495.38
2022-08-29T23:24:26.265Z,100487.78
2022-08-29T23:26:52.737Z,100501.69
2022-08-29T23:29:19.650Z,100502.13
2022-08-29T23:31:46.351Z,100494.53
2022-08-29T23:34:13.115Z,100500.03
2022-08-29T23:36:39.594Z,100500.22
2022-08-29T23:39:06.654Z,100494.94
2022-08-29T23:41:33.747Z,100497.69
2022-08-29T23:44:00.181Z,100499.16
2022-08-29T23:46:27.334Z,100503.16
2022-08-29T23:48:54.166Z,100506.34
2022-08-29T23:51:20.651Z,100495.78
2022-08-29T23:53:47.651Z,100504.44
2022-08-29T23:56:15.806Z,100496.84
2022-08-29T23:58:42.265Z,100494.28
